Fisherville, Pennsylvania
Current Conditions -  °F | °C
As of 5:58 AM on Wednesday 26 Nov 2014 (Local Time) from KMUI Reporting Station
Clear Clear  
Wind Chill: 38°   Ceiling: Unl
Heat Index: 41°   Visibility: 10mi
Dew Point: 29°   Wind: 5mph
Humidity: 60%   Direction: 50°NE
Pressure: 30.11"   Gusts: NA
Location:  40.4949°N, 76.8115°W
Report Text: KMUI 261058Z AUTO 05004KT 10SM CLR 05/M02 A3011 RMK AO2 SLP202 T00521019 $
Loading
Personal Weather Stations






























Interactive Weather Map New forecast layout! Learn more

10-Day Weather Forecast

Advertisements
Track Severe Weather on mobile